createdAt,value
2022-11-10T00:00:33.342Z,85.81
2022-11-10T00:03:19.461Z,85.83
2022-11-10T00:06:07.628Z,85.85
2022-11-10T00:08:53.229Z,85.74
2022-11-10T00:11:39.093Z,85.66
2022-11-10T00:14:42.311Z,85.85
2022-11-10T00:17:27.684Z,85.44
2022-11-10T00:20:14.114Z,85.54
2022-11-10T00:22:59.476Z,85.53
2022-11-10T00:25:44.975Z,85.52
2022-11-10T00:28:33.099Z,85.17
2022-11-10T00:31:18.512Z,85.23
2022-11-10T00:34:04.264Z,85.18
2022-11-10T00:36:49.794Z,85.19
2022-11-10T00:39:36.801Z,85.13
2022-11-10T00:42:22.359Z,85.10
2022-11-10T00:45:10.790Z,85.01
2022-11-10T00:47:56.100Z,85.02
2022-11-10T00:50:41.828Z,84.90
2022-11-10T00:53:27.313Z,84.94
2022-11-10T00:56:13.003Z,84.86
2022-11-10T00:58:59.161Z,85.00
2022-11-10T01:01:44.539Z,84.90
2022-11-10T01:04:30.201Z,84.94
2022-11-10T01:07:15.736Z,84.83
2022-11-10T01:10:01.217Z,84.80
2022-11-10T01:12:46.693Z,84.70
2022-11-10T01:15:32.589Z,84.60
2022-11-10T01:18:18.191Z,84.69
2022-11-10T01:21:04.506Z,84.62
2022-11-10T01:23:50.233Z,84.63
2022-11-10T01:26:36.469Z,84.59
2022-11-10T01:29:22.064Z,84.50
2022-11-10T01:32:07.951Z,84.42
2022-11-10T01:34:53.613Z,84.58
2022-11-10T01:37:40.624Z,84.46
2022-11-10T01:40:26.490Z,84.34
2022-11-10T01:43:14.106Z,84.18
2022-11-10T01:46:03.081Z,84.25
2022-11-10T01:48:52.254Z,84.20
2022-11-10T01:51:43.337Z,84.20
2022-11-10T01:54:31.738Z,84.24
2022-11-10T01:57:18.547Z,84.22
2022-11-10T02:00:05.361Z,84.15
2022-11-10T02:02:57.369Z,84.21
2022-11-10T02:05:44.552Z,84.14
2022-11-10T02:08:30.701Z,84.21
2022-11-10T02:11:16.910Z,83.96
2022-11-10T02:14:03.353Z,83.99
2022-11-10T02:16:49.147Z,83.94
2022-11-10T02:19:42.823Z,83.95
2022-11-10T02:22:28.363Z,83.89
2022-11-10T02:25:15.004Z,83.89
2022-11-10T02:28:00.291Z,83.94
2022-11-10T02:30:45.873Z,83.90
2022-11-10T02:33:31.712Z,83.73
2022-11-10T02:36:17.278Z,83.81
2022-11-10T02:39:02.818Z,83.71
2022-11-10T02:41:48.194Z,83.78
2022-11-10T02:44:33.888Z,83.80
2022-11-10T02:47:19.484Z,83.75
2022-11-10T02:50:05.082Z,83.70
2022-11-10T02:52:50.733Z,83.60
2022-11-10T02:55:36.541Z,83.75
2022-11-10T02:58:22.500Z,83.86
2022-11-10T03:01:08.989Z,83.78
2022-11-10T03:03:54.487Z,83.78
2022-11-10T03:06:40.567Z,83.81
2022-11-10T03:09:26.273Z,83.77
2022-11-10T03:12:11.641Z,83.94
2022-11-10T03:14:57.911Z,83.86
2022-11-10T03:17:43.474Z,83.84
2022-11-10T03:24:26.000Z,83.87
2022-11-10T03:27:12.031Z,83.80
2022-11-10T03:29:57.775Z,83.74
2022-11-10T03:32:43.822Z,83.77
2022-11-10T03:35:29.550Z,83.66
2022-11-10T03:38:15.398Z,83.81
2022-11-10T03:44:07.549Z,83.83
2022-11-10T03:46:53.440Z,83.72
2022-11-10T03:49:39.369Z,83.67
2022-11-10T03:52:25.351Z,83.72
2022-11-10T03:55:13.434Z,83.81
2022-11-10T03:58:01.996Z,83.64
2022-11-10T04:00:47.937Z,83.59
2022-11-10T04:03:33.936Z,83.65
2022-11-10T04:06:46.172Z,83.60
2022-11-10T04:09:32.096Z,83.60
2022-11-10T04:12:35.374Z,83.58
2022-11-10T04:15:38.859Z,83.55
2022-11-10T04:18:29.823Z,83.53
2022-11-10T04:21:15.805Z,83.53
2022-11-10T04:24:01.455Z,83.56
2022-11-10T04:26:48.749Z,83.63
2022-11-10T04:29:33.188Z,83.45
2022-11-10T04:32:18.879Z,83.42
2022-11-10T04:35:04.731Z,83.60
2022-11-10T04:37:51.141Z,83.74
2022-11-10T04:40:36.896Z,83.87
2022-11-10T04:43:23.177Z,83.86
2022-11-10T04:46:23.071Z,83.83
2022-11-10T04:49:09.675Z,83.90
2022-11-10T04:51:55.308Z,83.82
2022-11-10T04:54:41.149Z,84.00
2022-11-10T04:57:27.055Z,84.14
2022-11-10T05:00:15.258Z,84.20
2022-11-10T05:03:02.994Z,84.23
2022-11-10T05:05:49.297Z,84.20
2022-11-10T05:08:35.269Z,84.28
2022-11-10T05:11:21.098Z,84.15
2022-11-10T05:14:07.102Z,84.23
2022-11-10T05:16:52.733Z,84.44
2022-11-10T05:19:38.252Z,84.49
2022-11-10T05:22:24.222Z,84.49
2022-11-10T05:25:11.259Z,84.53
2022-11-10T05:27:56.635Z,84.68
2022-11-10T05:30:42.686Z,84.84
2022-11-10T05:33:28.438Z,84.81
2022-11-10T05:36:14.103Z,84.94
2022-11-10T05:39:00.053Z,84.97
2022-11-10T05:41:46.078Z,85.16
2022-11-10T05:44:31.851Z,85.30
2022-11-10T05:47:18.141Z,85.30
2022-11-10T05:50:04.220Z,85.38
2022-11-10T05:52:52.696Z,85.63
2022-11-10T05:55:38.801Z,85.61
2022-11-10T05:58:24.779Z,86.04
2022-11-10T06:01:10.633Z,85.87
2022-11-10T06:03:56.695Z,86.06
2022-11-10T06:06:42.734Z,86.29
2022-11-10T06:09:28.431Z,86.46
2022-11-10T06:12:14.486Z,86.38
2022-11-10T06:15:00.554Z,86.58
2022-11-10T06:17:46.749Z,86.80
2022-11-10T06:20:32.696Z,86.84
2022-11-10T06:23:18.971Z,86.98
2022-11-10T06:26:04.714Z,87.05
2022-11-10T06:28:50.376Z,86.95
2022-11-10T06:31:36.555Z,87.04
2022-11-10T06:34:22.409Z,87.12
2022-11-10T06:37:08.663Z,87.22
2022-11-10T06:39:54.291Z,87.24
2022-11-10T06:42:39.975Z,87.45
2022-11-10T06:45:28.614Z,87.67
2022-11-10T06:48:16.183Z,87.84
2022-11-10T06:51:04.368Z,87.96
2022-11-10T06:53:50.535Z,88.18
2022-11-10T06:56:36.568Z,88.31
2022-11-10T06:59:22.328Z,88.51
2022-11-10T07:02:11.724Z,88.74
2022-11-10T07:04:57.524Z,88.78
2022-11-10T07:07:43.551Z,88.98
2022-11-10T07:10:29.368Z,89.07
2022-11-10T07:13:15.165Z,89.21
2022-11-10T07:16:00.902Z,89.25
2022-11-10T07:18:48.737Z,89.10
2022-11-10T07:21:35.975Z,89.17
2022-11-10T07:24:21.788Z,89.36
2022-11-10T07:27:08.396Z,89.49
2022-11-10T07:29:54.377Z,89.57
2022-11-10T07:32:40.281Z,89.65
2022-11-10T07:35:28.427Z,89.74
2022-11-10T07:38:15.717Z,89.89
2022-11-10T07:41:00.060Z,89.86
2022-11-10T07:43:46.310Z,89.95
2022-11-10T07:46:33.136Z,89.97
2022-11-10T07:49:18.818Z,89.90
2022-11-10T07:52:04.985Z,89.74
2022-11-10T07:54:50.836Z,89.60
2022-11-10T07:57:37.110Z,89.68
2022-11-10T08:00:23.563Z,89.71
2022-11-10T08:03:12.154Z,89.72
2022-11-10T08:05:58.369Z,89.69
2022-11-10T08:08:44.532Z,89.90
2022-11-10T08:11:30.513Z,89.96
2022-11-10T08:14:16.526Z,89.79
2022-11-10T08:17:02.613Z,89.94
2022-11-10T08:19:48.319Z,90.01
2022-11-10T08:22:34.093Z,90.08
2022-11-10T08:25:35.919Z,90.09
2022-11-10T08:28:22.386Z,89.82
2022-11-10T08:31:08.620Z,89.76
2022-11-10T08:33:59.288Z,89.82
2022-11-10T08:36:44.958Z,89.74
2022-11-10T08:39:39.077Z,89.93
2022-11-10T08:42:25.203Z,89.95
2022-11-10T08:45:14.475Z,90.07
2022-11-10T08:48:01.610Z,90.02
2022-11-10T08:50:47.712Z,89.92
2022-11-10T08:53:33.273Z,89.86
2022-11-10T08:56:19.178Z,89.95
2022-11-10T08:59:04.750Z,89.74
2022-11-10T09:01:50.979Z,90.02
2022-11-10T09:04:37.942Z,90.03
2022-11-10T09:07:22.411Z,89.78
2022-11-10T09:10:09.819Z,89.63
2022-11-10T09:12:55.870Z,89.70
2022-11-10T09:15:42.971Z,89.63
2022-11-10T09:18:29.480Z,89.68
2022-11-10T09:21:15.264Z,89.68
2022-11-10T09:24:01.110Z,89.52
2022-11-10T09:26:48.184Z,89.61
2022-11-10T09:29:34.150Z,89.41
2022-11-10T09:32:19.775Z,89.63
2022-11-10T09:35:06.350Z,89.67
2022-11-10T09:37:52.158Z,89.78
2022-11-10T09:40:53.107Z,89.59
2022-11-10T09:43:45.526Z,89.31
2022-11-10T09:46:37.825Z,89.44
2022-11-10T09:49:34.491Z,89.74
2022-11-10T09:52:23.193Z,89.66
2022-11-10T09:55:27.506Z,89.59
2022-11-10T09:58:15.520Z,89.41
2022-11-10T10:01:11.373Z,89.45
2022-11-10T10:04:07.198Z,89.59
2022-11-10T10:07:10.613Z,89.33
2022-11-10T10:10:05.815Z,89.62
2022-11-10T10:13:11.800Z,89.58
2022-11-10T10:16:11.827Z,89.62
2022-11-10T10:19:03.987Z,89.48
2022-11-10T10:22:05.864Z,89.22
2022-11-10T10:24:55.280Z,89.24
2022-11-10T10:27:42.048Z,89.36
2022-11-10T10:30:27.710Z,89.40
2022-11-10T10:33:18.496Z,88.86
2022-11-10T10:36:08.386Z,88.67
2022-11-10T10:38:56.990Z,88.47
2022-11-10T10:41:46.445Z,87.94
2022-11-10T10:44:32.545Z,87.77
2022-11-10T10:47:18.340Z,87.51
2022-11-10T10:50:23.199Z,87.24
2022-11-10T10:53:17.018Z,87.20
2022-11-10T10:56:06.949Z,86.90
2022-11-10T10:58:56.938Z,87.01
2022-11-10T11:01:44.795Z,86.90
2022-11-10T11:04:34.064Z,86.65
2022-11-10T11:07:26.093Z,86.61
2022-11-10T11:10:24.477Z,86.29
2022-11-10T11:13:22.292Z,85.91
2022-11-10T11:16:10.023Z,86.18
2022-11-10T11:18:56.274Z,86.24
2022-11-10T11:21:53.023Z,86.19
2022-11-10T11:24:44.826Z,86.19
2022-11-10T11:27:39.307Z,85.82
2022-11-10T11:30:26.585Z,85.60
2022-11-10T11:33:34.053Z,85.44
2022-11-10T11:36:29.023Z,85.42
2022-11-10T11:39:37.654Z,85.50
2022-11-10T11:42:31.203Z,85.52
2022-11-10T11:45:26.417Z,85.46
2022-11-10T11:48:33.374Z,85.29
2022-11-10T11:51:27.669Z,85.09
2022-11-10T11:54:35.079Z,85.06
2022-11-10T11:57:37.115Z,85.04
2022-11-10T12:00:26.290Z,84.81
2022-11-10T12:03:40.635Z,84.97
2022-11-10T12:06:35.777Z,84.53
2022-11-10T12:09:28.443Z,84.50
2022-11-10T12:12:37.933Z,84.09
2022-11-10T12:15:34.889Z,84.00
2022-11-10T12:18:30.918Z,83.86
2022-11-10T12:21:25.967Z,83.44
2022-11-10T12:24:29.094Z,83.43
2022-11-10T12:27:19.306Z,83.25
2022-11-10T12:30:11.065Z,83.35
2022-11-10T12:33:03.804Z,83.30
2022-11-10T12:35:49.680Z,83.17
2022-11-10T12:38:45.508Z,83.05
2022-11-10T12:41:35.040Z,83.18
2022-11-10T12:44:29.036Z,83.32
2022-11-10T12:47:21.466Z,83.24
2022-11-10T12:50:26.454Z,83.16
2022-11-10T12:53:19.808Z,83.07
2022-11-10T12:56:11.470Z,82.71
2022-11-10T12:59:23.432Z,82.72
2022-11-10T13:02:25.051Z,82.69
2022-11-10T13:05:31.405Z,82.79
2022-11-10T13:08:25.716Z,82.51
2022-11-10T13:11:25.679Z,82.38
2022-11-10T13:14:26.059Z,82.16
2022-11-10T13:17:13.554Z,82.10
2022-11-10T13:20:14.230Z,82.11
2022-11-10T13:23:24.040Z,81.99
2022-11-10T13:26:32.210Z,81.94
2022-11-10T13:29:32.366Z,81.91
2022-11-10T13:32:30.811Z,82.20
2022-11-10T13:35:55.258Z,81.89
2022-11-10T13:38:43.233Z,81.84
2022-11-10T13:41:28.230Z,81.76
2022-11-10T13:44:25.754Z,81.72
2022-11-10T13:47:48.610Z,82.03
2022-11-10T13:50:44.681Z,82.17
2022-11-10T13:53:41.813Z,82.23
2022-11-10T13:56:50.486Z,82.41
2022-11-10T13:59:47.882Z,82.46
2022-11-10T14:03:02.551Z,82.47
2022-11-10T14:06:10.839Z,82.30
2022-11-10T14:09:01.811Z,82.38
2022-11-10T14:11:52.778Z,82.58
2022-11-10T14:14:52.964Z,82.56
2022-11-10T14:17:45.566Z,82.57
2022-11-10T14:20:42.085Z,82.49
2022-11-10T14:23:35.028Z,82.45
2022-11-10T14:26:26.995Z,82.53
2022-11-10T14:29:35.880Z,82.63
2022-11-10T14:32:28.444Z,82.73
2022-11-10T14:35:24.658Z,82.92
2022-11-10T14:38:21.289Z,83.05
2022-11-10T14:41:16.017Z,83.14
2022-11-10T14:44:06.917Z,83.34
2022-11-10T14:46:53.589Z,83.43
2022-11-10T14:49:39.350Z,83.45
2022-11-10T14:52:25.419Z,83.69
2022-11-10T14:55:18.736Z,83.71
2022-11-10T14:58:09.045Z,83.83
2022-11-10T15:00:55.407Z,83.87
2022-11-10T15:03:43.823Z,84.10
2022-11-10T15:06:31.060Z,84.02
2022-11-10T15:09:23.223Z,84.10
2022-11-10T15:12:24.699Z,84.29
2022-11-10T15:15:22.493Z,84.16
2022-11-10T15:18:07.062Z,84.22
2022-11-10T15:21:02.938Z,84.39
2022-11-10T15:23:54.005Z,84.39
2022-11-10T15:26:42.764Z,84.54
2022-11-10T15:29:30.485Z,84.73
2022-11-10T15:32:21.293Z,84.46
2022-11-10T15:35:29.842Z,84.48
2022-11-10T15:38:29.203Z,84.25
2022-11-10T15:41:20.727Z,84.18
2022-11-10T15:44:21.067Z,84.27
2022-11-10T15:47:07.754Z,84.26
2022-11-10T15:49:54.114Z,84.29
2022-11-10T15:52:41.185Z,84.07
2022-11-10T15:55:27.695Z,84.15
2022-11-10T15:58:20.357Z,84.24
2022-11-10T16:01:07.023Z,84.10
2022-11-10T16:03:52.750Z,83.98
2022-11-10T16:06:38.462Z,84.18
2022-11-10T16:09:24.484Z,84.24
2022-11-10T16:12:15.037Z,84.23
2022-11-10T16:15:01.447Z,84.19
2022-11-10T16:17:47.088Z,84.30
2022-11-10T16:20:32.876Z,84.30
2022-11-10T16:23:18.460Z,84.13
2022-11-10T16:26:07.815Z,84.03
2022-11-10T16:28:53.530Z,84.02
2022-11-10T16:31:39.578Z,83.93
2022-11-10T16:34:25.748Z,83.86
2022-11-10T16:37:15.065Z,83.83
2022-11-10T16:40:00.754Z,83.80
2022-11-10T16:42:47.436Z,83.76
2022-11-10T16:45:33.601Z,83.79
2022-11-10T16:48:24.302Z,83.78
2022-11-10T16:51:11.388Z,83.75
2022-11-10T16:54:00.762Z,83.83
2022-11-10T16:56:46.601Z,83.65
2022-11-10T16:59:32.091Z,83.77
2022-11-10T17:02:29.787Z,83.85
2022-11-10T17:05:17.262Z,83.80
2022-11-10T17:08:04.460Z,83.99
2022-11-10T17:10:49.979Z,83.77
2022-11-10T17:13:35.702Z,83.82
2022-11-10T17:16:26.924Z,83.74
2022-11-10T17:19:20.135Z,83.78
2022-11-10T17:22:06.074Z,83.85
2022-11-10T17:24:56.332Z,83.82
2022-11-10T17:27:42.060Z,83.68
2022-11-10T17:30:28.342Z,83.70
2022-11-10T17:33:14.505Z,83.68
2022-11-10T17:36:02.272Z,83.65
2022-11-10T17:38:48.365Z,83.49
2022-11-10T17:41:35.412Z,83.67
2022-11-10T17:44:21.136Z,83.59
2022-11-10T17:47:06.816Z,83.72
2022-11-10T17:49:52.134Z,83.70
2022-11-10T17:52:37.834Z,83.71
2022-11-10T17:55:31.133Z,83.64
2022-11-10T17:58:20.220Z,83.58
2022-11-10T18:01:12.329Z,83.54
2022-11-10T18:03:58.208Z,83.42
2022-11-10T18:06:45.288Z,83.62
2022-11-10T18:09:30.910Z,83.61
2022-11-10T18:12:16.453Z,83.67
2022-11-10T18:15:02.471Z,83.67
2022-11-10T18:17:48.441Z,83.52
2022-11-10T18:20:34.327Z,83.67
2022-11-10T18:23:20.453Z,83.72
2022-11-10T18:26:11.783Z,83.82
2022-11-10T18:28:57.303Z,83.69
2022-11-10T18:31:42.747Z,83.69
2022-11-10T18:34:28.383Z,83.89
2022-11-10T18:37:14.129Z,83.86
2022-11-10T18:39:59.877Z,83.90
2022-11-10T18:42:45.447Z,83.95
2022-11-10T18:45:31.342Z,83.99
2022-11-10T18:48:16.970Z,84.06
2022-11-10T18:51:07.796Z,84.08
2022-11-10T18:53:54.324Z,83.96
2022-11-10T18:56:40.527Z,84.11
2022-11-10T18:59:26.311Z,84.15
2022-11-10T19:02:14.408Z,84.08
2022-11-10T19:05:00.536Z,84.03
2022-11-10T19:07:47.801Z,84.13
2022-11-10T19:10:33.243Z,84.19
2022-11-10T19:13:18.753Z,84.32
2022-11-10T19:16:08.680Z,84.31
2022-11-10T19:18:54.671Z,84.38
2022-11-10T19:21:40.505Z,84.35
2022-11-10T19:24:28.249Z,84.45
2022-11-10T19:27:15.749Z,84.54
2022-11-10T19:30:01.642Z,84.57
2022-11-10T19:32:47.611Z,84.57
2022-11-10T19:35:33.827Z,84.57
2022-11-10T19:38:19.547Z,84.44
2022-11-10T19:41:08.412Z,84.49
2022-11-10T19:43:53.987Z,84.64
2022-11-10T19:46:39.751Z,84.50
2022-11-10T19:49:25.833Z,84.37
2022-11-10T19:52:11.622Z,84.42
2022-11-10T19:54:57.866Z,84.35
2022-11-10T19:57:43.868Z,84.47
2022-11-10T20:00:29.761Z,84.39
2022-11-10T20:03:15.773Z,84.35
2022-11-10T20:06:03.447Z,84.43
2022-11-10T20:08:49.593Z,84.15
2022-11-10T20:11:35.025Z,84.13
2022-11-10T20:14:20.813Z,84.18
2022-11-10T20:17:06.854Z,84.22
2022-11-10T20:19:52.353Z,84.58
2022-11-10T20:22:38.455Z,84.48
2022-11-10T20:25:24.748Z,84.65
2022-11-10T20:28:10.580Z,84.76
2022-11-10T20:30:58.258Z,84.87
2022-11-10T20:33:45.402Z,84.92
2022-11-10T20:36:34.029Z,85.02
2022-11-10T20:39:19.988Z,85.04
2022-11-10T20:42:06.196Z,85.26
2022-11-10T20:44:51.922Z,85.25
2022-11-10T20:47:37.699Z,85.08
2022-11-10T20:50:24.700Z,85.14
2022-11-10T20:53:10.429Z,85.25
2022-11-10T20:56:02.065Z,85.13
2022-11-10T20:58:47.690Z,85.14
2022-11-10T21:01:33.756Z,85.05
2022-11-10T21:04:19.673Z,85.22
2022-11-10T21:07:05.631Z,85.18
2022-11-10T21:09:51.477Z,85.19
2022-11-10T21:12:52.334Z,85.17
2022-11-10T21:15:40.333Z,85.29
2022-11-10T21:18:27.379Z,85.48
2022-11-10T21:21:22.709Z,85.52
2022-11-10T21:24:10.192Z,85.61
2022-11-10T21:26:59.798Z,85.58
2022-11-10T21:29:47.968Z,85.73
2022-11-10T21:32:34.159Z,85.60
2022-11-10T21:35:20.490Z,85.83
2022-11-10T21:38:06.836Z,85.77
2022-11-10T21:40:53.059Z,85.73
2022-11-10T21:43:39.315Z,85.69
2022-11-10T21:46:25.287Z,85.72
2022-11-10T21:49:11.018Z,85.89
2022-11-10T21:51:56.861Z,85.74
2022-11-10T21:54:42.741Z,85.76
2022-11-10T21:57:28.500Z,85.71
2022-11-10T22:00:16.936Z,85.76
2022-11-10T22:03:03.824Z,85.76
2022-11-10T22:05:49.713Z,85.94
2022-11-10T22:08:36.535Z,86.08
2022-11-10T22:11:40.959Z,86.01
2022-11-10T22:14:44.370Z,86.14
2022-11-10T22:17:48.263Z,86.20
2022-11-10T22:20:34.768Z,86.21
2022-11-10T22:23:40.624Z,86.24
2022-11-10T22:26:26.683Z,86.37
2022-11-10T22:29:13.092Z,86.53
2022-11-10T22:31:59.066Z,86.55
2022-11-10T22:34:44.739Z,86.56
2022-11-10T22:37:33.344Z,86.37
2022-11-10T22:40:36.545Z,86.45
2022-11-10T22:43:39.760Z,86.57
2022-11-10T22:46:25.020Z,86.48
2022-11-10T22:49:14.216Z,86.58
2022-11-10T22:52:00.111Z,86.55
2022-11-10T22:54:45.710Z,86.66
2022-11-10T22:57:31.382Z,86.55
2022-11-10T23:00:19.373Z,86.72
2022-11-10T23:03:05.095Z,86.56
2022-11-10T23:05:56.442Z,86.43
2022-11-10T23:08:42.854Z,86.52
2022-11-10T23:11:30.647Z,86.45
2022-11-10T23:14:16.601Z,86.63
2022-11-10T23:17:02.142Z,86.43
2022-11-10T23:19:47.769Z,86.52
2022-11-10T23:22:33.897Z,86.50
2022-11-10T23:25:19.958Z,86.51
2022-11-10T23:28:05.994Z,86.53
2022-11-10T23:30:52.148Z,86.49
2022-11-10T23:33:38.790Z,86.38
2022-11-10T23:36:25.950Z,86.53
2022-11-10T23:39:13.204Z,86.59
2022-11-10T23:41:59.293Z,86.73
2022-11-10T23:44:45.070Z,86.59
2022-11-10T23:47:31.174Z,86.73
2022-11-10T23:50:17.156Z,86.88
2022-11-10T23:53:03.153Z,86.96
2022-11-10T23:55:56.954Z,87.15
2022-11-10T23:58:43.841Z,87.05
